Salina, KS

11:27 AM CDT on September 05, 2015 (GMT -0500)
Stegall's backyard | | Change Station
CLOSE
Current Station
Personal Weather Station
Location: Salina, KS
Elevation: 1247 ft
Nearby Weather Stations

Elev 1247 ft 38.82 °N, 97.63 °W | Updated 4 minutes ago

Clear
Clear
89.8 °F
Feels Like 95 °F
N
2.2
Wind Variable Wind from ENE

Today
High -- | Low -- °F
--% Chance of Precip.
Yesterday
High -- | Low -- °F
Precip. -- in
7:02 AM 7:55 PM
Waning Gibbous, 47% visible
Pressure 29.93 in
Visibility 10.0 miles
Clouds Clear
Heat Index 95 °F
Dew Point 69 °F
Humidity 51%
Rainfall 0.00 in
Snow Depth Not available.
UV 6 out of 12
Pollen 11.50 out of 12
Air Quality Not available.
Flu Activity Not available.
METAR KSLN 051553Z 19021G25KT 10SM CLR 31/19 A2998 RMK AO2 SLP135 T03060194
Pressure 29.93 in
Visibility 10.0 miles
Clouds Clear
Heat Index 95 °F
Dew Point 69 °F
Humidity 51%
Rainfall 0.00 in
Snow Depth Not available.
UV 6 out of 12
Pollen 11.50 out of 12
Air Quality Not available.
Flu Activity Not available.
METAR KSLN 051553Z 19021G25KT 10SM CLR 31/19 A2998 RMK AO2 SLP135 T03060194

10-Day Weather Forecast

×

Almanac

Astronomy

Sep. 05, 2015 Rise Set
Actual Time
Civil Twilight
Nautical Twilight
Astronomical Twilight
Moon
Length of Visible Light
Length of Day
Tomorrow will be .
, % of the Moon is Illuminated

Today's Extremes

State Highs State Lows

Community

WunderPhotos

Upload Photos

1,852,495 photos uploaded!

WunderBlogs® & News

Nearby

Air Quality

  Air Quality AQ Index Pollutant
Not available.

Snow Depth

Station Depth Elevation

Earthquake Activity

City Distance Mag. Time & Date
Minimum magnitude displayed is 2.5.

Coastal Water Temperatures

Place Temperature

Stations

Nearby Weather Stations

Station Location Temp. Windchill Dew Point Humidity Wind Precip. Elev Updated Type